createdAt,value
2022-10-23T00:02:16.832Z,9.94
2022-10-23T00:04:44.613Z,9.82
2022-10-23T00:07:12.863Z,9.66
2022-10-23T00:09:40.608Z,9.53
2022-10-23T00:12:08.519Z,9.43
2022-10-23T00:14:37.645Z,9.40
2022-10-23T00:17:05.456Z,9.31
2022-10-23T00:19:33.210Z,9.40
2022-10-23T00:22:01.238Z,9.45
2022-10-23T00:24:29.123Z,9.38
2022-10-23T00:26:56.896Z,9.41
2022-10-23T00:29:25.673Z,9.40
2022-10-23T00:31:57.037Z,9.55
2022-10-23T00:34:25.220Z,9.69
2022-10-23T00:36:52.970Z,9.66
2022-10-23T00:39:20.766Z,9.67
2022-10-23T00:41:48.533Z,9.51
2022-10-23T00:44:49.384Z,9.48
2022-10-23T00:47:19.368Z,9.58
2022-10-23T00:49:47.156Z,9.60
2022-10-23T00:52:15.360Z,9.70
2022-10-23T00:54:44.519Z,9.88
2022-10-23T00:57:14.226Z,9.94
2022-10-23T00:59:44.042Z,9.97
2022-10-23T01:02:12.011Z,10.04
2022-10-23T01:04:41.596Z,10.07
2022-10-23T01:07:16.880Z,10.13
2022-10-23T01:09:50.743Z,10.09
2022-10-23T01:12:27.356Z,10.05
2022-10-23T01:15:06.216Z,10.12
2022-10-23T01:17:42.500Z,10.13
2022-10-23T01:20:30.354Z,10.13
2022-10-23T01:23:13.424Z,10.22
2022-10-23T01:25:59.760Z,10.18
2022-10-23T01:28:33.857Z,10.18
2022-10-23T01:31:08.542Z,10.18
2022-10-23T01:33:42.380Z,10.19
2022-10-23T01:36:15.302Z,10.21
2022-10-23T01:38:47.400Z,10.19
2022-10-23T01:41:25.744Z,10.15
2022-10-23T01:44:01.959Z,10.14
2022-10-23T01:46:37.417Z,10.13
2022-10-23T01:49:11.059Z,10.12
2022-10-23T01:51:41.300Z,10.11
2022-10-23T01:54:13.896Z,10.04
2022-10-23T01:56:47.004Z,9.98
2022-10-23T01:59:20.904Z,9.92
2022-10-23T02:01:51.848Z,9.88
2022-10-23T02:04:28.242Z,9.89
2022-10-23T02:06:56.372Z,9.93
2022-10-23T02:09:24.608Z,10.02
2022-10-23T02:11:56.288Z,10.06
2022-10-23T02:14:35.383Z,9.94
2022-10-23T02:17:15.988Z,10.08
2022-10-23T02:19:51.024Z,10.07
2022-10-23T02:22:24.041Z,9.95
2022-10-23T02:24:56.689Z,9.98
2022-10-23T02:27:31.415Z,9.79
2022-10-23T02:30:05.286Z,9.91
2022-10-23T02:32:35.940Z,9.91
2022-10-23T02:35:04.105Z,9.90
2022-10-23T02:37:31.961Z,9.89
2022-10-23T02:40:03.881Z,9.85
2022-10-23T02:42:46.017Z,9.87
2022-10-23T02:45:25.424Z,9.88
2022-10-23T02:48:01.544Z,9.90
2022-10-23T02:50:36.266Z,9.91
2022-10-23T02:53:12.414Z,9.93
2022-10-23T02:55:52.561Z,9.96
2022-10-23T02:58:25.537Z,9.96
2022-10-23T03:01:00.685Z,9.86
2022-10-23T03:03:32.659Z,10.00
2022-10-23T03:06:00.896Z,9.97
2022-10-23T03:08:29.124Z,9.98
2022-10-23T03:10:57.213Z,9.95
2022-10-23T03:13:25.231Z,9.97
2022-10-23T03:15:53.547Z,9.95
2022-10-23T03:18:22.634Z,9.90
2022-10-23T03:20:51.808Z,9.89
2022-10-23T03:23:23.164Z,9.83
2022-10-23T03:25:51.449Z,9.81
2022-10-23T03:28:32.704Z,9.84
2022-10-23T03:31:02.102Z,9.83
2022-10-23T03:33:31.769Z,9.82
2022-10-23T03:36:08.733Z,9.82
2022-10-23T03:38:37.070Z,9.79
2022-10-23T03:41:06.155Z,9.83
2022-10-23T03:43:33.949Z,9.82
2022-10-23T03:46:02.206Z,9.73
2022-10-23T03:48:32.636Z,9.73
2022-10-23T03:51:00.479Z,9.72
2022-10-23T03:53:28.245Z,9.77
2022-10-23T03:55:56.229Z,9.78
2022-10-23T03:58:23.991Z,9.77
2022-10-23T04:00:51.859Z,9.78
2022-10-23T04:03:19.627Z,9.77
2022-10-23T04:05:52.102Z,9.74
2022-10-23T04:08:22.461Z,9.77
2022-10-23T04:10:53.497Z,9.82
2022-10-23T04:13:27.245Z,9.86
2022-10-23T04:15:55.231Z,9.85
2022-10-23T04:18:24.564Z,9.78
2022-10-23T04:20:54.516Z,9.80
2022-10-23T04:23:22.540Z,9.83
2022-10-23T04:25:50.520Z,9.85
2022-10-23T04:28:18.375Z,9.87
2022-10-23T04:30:46.808Z,9.89
2022-10-23T04:33:14.548Z,9.90
2022-10-23T04:35:42.404Z,9.85
2022-10-23T04:38:13.152Z,9.86
2022-10-23T04:40:41.097Z,9.80
2022-10-23T04:43:08.886Z,9.87
2022-10-23T04:45:39.448Z,9.91
2022-10-23T04:48:07.627Z,9.84
2022-10-23T04:50:59.274Z,10.01
2022-10-23T04:53:34.996Z,9.99
2022-10-23T04:56:35.102Z,9.99
2022-10-23T04:59:07.067Z,10.02
2022-10-23T05:01:36.047Z,10.02
2022-10-23T05:04:06.059Z,9.97
2022-10-23T05:06:40.513Z,10.03
2022-10-23T05:09:24.311Z,10.04
2022-10-23T05:12:00.319Z,10.08
2022-10-23T05:14:28.140Z,10.07
2022-10-23T05:17:01.139Z,9.99
2022-10-23T05:19:34.641Z,10.03
2022-10-23T05:22:03.314Z,10.00
2022-10-23T05:24:50.477Z,9.96
2022-10-23T05:27:22.433Z,10.12
2022-10-23T05:29:52.232Z,10.11
2022-10-23T05:32:26.874Z,10.13
2022-10-23T05:34:56.167Z,10.16
2022-10-23T05:37:27.873Z,10.17
2022-10-23T05:40:09.006Z,10.17
2022-10-23T05:42:40.926Z,10.13
2022-10-23T05:45:12.178Z,10.15
2022-10-23T05:48:11.272Z,10.11
2022-10-23T05:51:10.608Z,10.06
2022-10-23T05:53:48.562Z,10.14
2022-10-23T05:56:25.286Z,10.17
2022-10-23T05:59:07.704Z,10.15
2022-10-23T06:01:49.842Z,10.11
2022-10-23T06:04:26.728Z,10.07
2022-10-23T06:07:14.487Z,10.06
2022-10-23T06:09:44.577Z,10.08
2022-10-23T06:12:15.228Z,10.19
2022-10-23T06:14:46.116Z,10.27
2022-10-23T06:17:13.990Z,10.29
2022-10-23T06:19:45.174Z,10.31
2022-10-23T06:22:15.321Z,10.28
2022-10-23T06:24:50.689Z,10.18
2022-10-23T06:27:28.949Z,10.14
2022-10-23T06:29:56.854Z,10.14
2022-10-23T06:32:25.710Z,10.04
2022-10-23T06:35:10.214Z,10.10
2022-10-23T06:37:38.729Z,10.12
2022-10-23T06:40:13.216Z,10.09
2022-10-23T06:42:56.652Z,10.03
2022-10-23T06:45:39.818Z,10.00
2022-10-23T06:48:13.713Z,10.04
2022-10-23T06:50:44.541Z,10.10
2022-10-23T06:53:15.841Z,10.14
2022-10-23T06:55:52.889Z,10.03
2022-10-23T06:58:25.820Z,10.22
2022-10-23T07:01:12.529Z,10.26
2022-10-23T07:03:43.839Z,10.39
2022-10-23T07:06:12.747Z,10.48
2022-10-23T07:08:40.983Z,10.55
2022-10-23T07:11:28.745Z,10.70
2022-10-23T07:13:59.408Z,10.70
2022-10-23T07:16:27.422Z,10.82
2022-10-23T07:18:59.293Z,10.88
2022-10-23T07:21:32.090Z,10.85
2022-10-23T07:24:18.650Z,10.90
2022-10-23T07:26:46.686Z,10.94
2022-10-23T07:29:16.899Z,11.03
2022-10-23T07:31:44.939Z,11.03
2022-10-23T07:34:32.006Z,10.98
2022-10-23T07:37:35.465Z,10.97
2022-10-23T07:40:06.177Z,11.06
2022-10-23T07:42:39.906Z,11.08
2022-10-23T07:45:12.429Z,11.07
2022-10-23T07:47:43.872Z,11.18
2022-10-23T07:50:14.119Z,11.38
2022-10-23T07:52:42.016Z,11.48
2022-10-23T07:55:15.077Z,11.46
2022-10-23T07:57:53.435Z,11.60
2022-10-23T08:00:43.020Z,11.63
2022-10-23T08:03:25.652Z,11.69
2022-10-23T08:05:54.279Z,11.67
2022-10-23T08:08:23.571Z,11.65
2022-10-23T08:10:55.353Z,11.64
2022-10-23T08:13:28.712Z,11.58
2022-10-23T08:16:03.249Z,11.58
2022-10-23T08:18:54.694Z,11.64
2022-10-23T08:21:23.103Z,11.69
2022-10-23T08:23:54.476Z,11.78
2022-10-23T08:26:23.045Z,11.75
2022-10-23T08:28:51.286Z,11.88
2022-10-23T08:31:22.366Z,11.97
2022-10-23T08:34:15.224Z,12.09
2022-10-23T08:36:44.516Z,12.22
2022-10-23T08:39:12.874Z,12.34
2022-10-23T08:41:51.528Z,12.39
2022-10-23T08:44:24.292Z,12.37
2022-10-23T08:47:01.356Z,12.39
2022-10-23T08:49:51.725Z,12.26
2022-10-23T08:52:27.138Z,12.31
2022-10-23T08:55:03.647Z,12.30
2022-10-23T08:57:40.039Z,12.35
2022-10-23T09:00:15.384Z,12.45
2022-10-23T09:02:47.664Z,12.62
2022-10-23T09:05:18.935Z,12.78
2022-10-23T09:08:12.657Z,13.02
2022-10-23T09:10:53.023Z,13.14
2022-10-23T09:13:45.492Z,13.26
2022-10-23T09:16:22.081Z,13.19
2022-10-23T09:18:51.278Z,13.39
2022-10-23T09:21:19.019Z,13.42
2022-10-23T09:23:46.820Z,13.57
2022-10-23T09:26:16.798Z,13.61
2022-10-23T09:28:48.743Z,13.45
2022-10-23T09:31:17.568Z,13.48
2022-10-23T09:33:57.140Z,13.40
2022-10-23T09:36:29.050Z,13.36
2022-10-23T09:38:59.790Z,13.35
2022-10-23T09:41:30.845Z,13.38
2022-10-23T09:44:18.548Z,13.45
2022-10-23T09:46:48.529Z,13.69
2022-10-23T09:49:19.850Z,13.92
2022-10-23T09:51:54.904Z,14.04
2022-10-23T09:54:24.874Z,14.14
2022-10-23T09:56:55.920Z,14.24
2022-10-23T09:59:28.725Z,14.21
2022-10-23T10:01:58.908Z,14.19
2022-10-23T10:04:59.377Z,14.23
2022-10-23T10:07:33.372Z,14.19
2022-10-23T10:10:03.917Z,14.24
2022-10-23T10:12:45.940Z,14.24
2022-10-23T10:15:23.718Z,14.38
2022-10-23T10:18:04.044Z,14.41
2022-10-23T10:20:55.816Z,14.35
2022-10-23T10:23:34.375Z,14.20
2022-10-23T10:26:15.872Z,14.21
2022-10-23T10:28:54.730Z,14.25
2022-10-23T10:31:30.290Z,14.27
2022-10-23T10:34:07.688Z,14.21
2022-10-23T10:36:50.549Z,14.13
2022-10-23T10:39:28.735Z,14.07
2022-10-23T10:42:10.916Z,14.05
2022-10-23T10:44:52.828Z,14.00
2022-10-23T10:47:25.560Z,14.01
2022-10-23T10:50:03.684Z,14.02
2022-10-23T10:52:49.903Z,14.03
2022-10-23T10:55:22.757Z,14.09
2022-10-23T10:57:59.175Z,14.14
2022-10-23T11:00:31.250Z,14.17
2022-10-23T11:03:02.760Z,14.15
2022-10-23T11:05:33.292Z,14.23
2022-10-23T11:08:06.892Z,14.27
2022-10-23T11:10:38.766Z,14.30
2022-10-23T11:13:06.790Z,14.31
2022-10-23T11:15:39.838Z,14.34
2022-10-23T11:18:16.537Z,14.39
2022-10-23T11:21:01.117Z,14.40
2022-10-23T11:23:49.824Z,14.42
2022-10-23T11:26:33.958Z,14.49
2022-10-23T11:29:21.899Z,14.50
2022-10-23T11:32:02.945Z,14.63
2022-10-23T11:34:44.964Z,14.67
2022-10-23T11:37:18.092Z,14.68
2022-10-23T11:40:02.389Z,14.69
2022-10-23T11:42:46.588Z,14.69
2022-10-23T11:45:28.861Z,14.69
2022-10-23T11:48:01.439Z,14.71
2022-10-23T11:50:32.832Z,14.73
2022-10-23T11:53:14.552Z,14.66
2022-10-23T11:56:00.540Z,14.79
2022-10-23T11:58:33.095Z,14.80
2022-10-23T12:01:06.691Z,14.80
2022-10-23T12:03:42.876Z,14.84
2022-10-23T12:06:22.721Z,14.76
2022-10-23T12:08:57.487Z,14.98
2022-10-23T12:11:42.239Z,15.03
2022-10-23T12:14:30.634Z,15.14
2022-10-23T12:16:59.483Z,15.22
2022-10-23T12:19:29.319Z,15.28
2022-10-23T12:22:01.517Z,15.45
2022-10-23T12:24:49.179Z,15.51
2022-10-23T12:27:26.852Z,15.50
2022-10-23T12:30:05.577Z,15.62
2022-10-23T12:32:46.742Z,15.68
2022-10-23T12:35:29.788Z,15.66
2022-10-23T12:38:11.428Z,15.77
2022-10-23T12:40:39.541Z,15.85
2022-10-23T12:43:26.087Z,15.98
2022-10-23T12:45:56.058Z,16.06
2022-10-23T12:48:25.418Z,16.08
2022-10-23T12:50:55.316Z,16.13
2022-10-23T12:53:24.160Z,16.16
2022-10-23T12:55:57.104Z,16.22
2022-10-23T12:58:29.986Z,16.31
2022-10-23T13:01:03.408Z,16.48
2022-10-23T13:03:32.647Z,16.63
2022-10-23T13:06:03.454Z,16.75
2022-10-23T13:08:35.041Z,16.86
2022-10-23T13:11:23.797Z,16.88
2022-10-23T13:13:55.106Z,16.80
2022-10-23T13:16:25.124Z,16.83
2022-10-23T13:18:54.323Z,16.67
2022-10-23T13:21:24.212Z,16.54
2022-10-23T13:23:54.298Z,16.59
2022-10-23T13:26:29.474Z,16.54
2022-10-23T13:28:59.462Z,16.89
2022-10-23T13:31:31.328Z,16.86
2022-10-23T13:34:16.175Z,17.00
2022-10-23T13:36:53.706Z,16.81
2022-10-23T13:39:25.553Z,16.69
2022-10-23T13:41:54.154Z,16.65
2022-10-23T13:44:24.784Z,16.71
2022-10-23T13:46:53.098Z,16.73
2022-10-23T13:49:21.206Z,16.67
2022-10-23T13:51:52.564Z,16.56
2022-10-23T13:54:23.029Z,16.43
2022-10-23T13:56:50.900Z,16.31
2022-10-23T13:59:19.301Z,16.20
2022-10-23T14:01:49.910Z,16.09
2022-10-23T14:04:19.134Z,15.96
2022-10-23T14:06:47.273Z,15.93
2022-10-23T14:09:17.604Z,15.96
2022-10-23T14:11:46.004Z,15.97
2022-10-23T14:14:13.766Z,15.93
2022-10-23T14:16:41.733Z,15.90
2022-10-23T14:19:11.912Z,15.80
2022-10-23T14:21:39.691Z,15.84
2022-10-23T14:24:07.908Z,15.75
2022-10-23T14:26:35.860Z,15.70
2022-10-23T14:29:07.649Z,15.73
2022-10-23T14:31:38.095Z,15.79
2022-10-23T14:34:05.845Z,15.80
2022-10-23T14:36:49.255Z,15.81
2022-10-23T14:39:17.876Z,15.78
2022-10-23T14:41:45.896Z,15.78
2022-10-23T14:44:13.904Z,15.79
2022-10-23T14:46:41.729Z,15.82
2022-10-23T14:49:09.568Z,15.68
2022-10-23T14:51:38.678Z,15.75
2022-10-23T14:54:08.760Z,15.72
2022-10-23T14:56:39.370Z,15.68
2022-10-23T14:59:07.940Z,15.61
2022-10-23T15:01:42.293Z,15.53
2022-10-23T15:04:14.381Z,15.48
2022-10-23T15:06:46.282Z,15.41
2022-10-23T15:09:14.786Z,15.35
2022-10-23T15:11:42.756Z,15.28
2022-10-23T15:14:10.581Z,15.22
2022-10-23T15:16:41.331Z,15.16
2022-10-23T15:19:13.573Z,15.10
2022-10-23T15:21:47.132Z,15.04
2022-10-23T15:24:15.142Z,15.13
2022-10-23T15:26:43.374Z,15.05
2022-10-23T15:29:12.322Z,15.10
2022-10-23T15:31:49.534Z,15.05
2022-10-23T15:34:19.996Z,14.99
2022-10-23T15:36:50.152Z,14.92
2022-10-23T15:39:20.553Z,14.85
2022-10-23T15:41:52.157Z,14.82
2022-10-23T15:44:22.186Z,14.82
2022-10-23T15:46:50.403Z,14.85
2022-10-23T15:49:19.872Z,14.79
2022-10-23T15:51:49.266Z,14.93
2022-10-23T15:54:19.394Z,14.92
2022-10-23T15:56:48.561Z,14.88
2022-10-23T15:59:16.817Z,14.79
2022-10-23T16:01:44.848Z,14.88
2022-10-23T16:04:12.768Z,14.86
2022-10-23T16:06:40.662Z,14.85
2022-10-23T16:09:09.850Z,14.83
2022-10-23T16:11:39.984Z,14.67
2022-10-23T16:14:08.212Z,14.80
2022-10-23T16:16:36.311Z,14.76
2022-10-23T16:19:05.450Z,14.72
2022-10-23T16:21:35.326Z,14.68
2022-10-23T16:24:04.813Z,14.67
2022-10-23T16:26:34.401Z,14.67
2022-10-23T16:29:04.364Z,14.65
2022-10-23T16:31:32.628Z,14.63
2022-10-23T16:34:02.216Z,14.59
2022-10-23T16:36:30.515Z,14.44
2022-10-23T16:39:11.189Z,14.51
2022-10-23T16:41:59.181Z,14.51
2022-10-23T16:44:36.802Z,14.52
2022-10-23T16:47:06.856Z,14.43
2022-10-23T16:49:35.154Z,14.53
2022-10-23T16:52:02.964Z,14.53
2022-10-23T16:54:30.809Z,14.54
2022-10-23T16:57:00.296Z,14.54
2022-10-23T16:59:28.093Z,14.55
2022-10-23T17:01:56.007Z,14.55
2022-10-23T17:04:23.928Z,14.54
2022-10-23T17:06:51.732Z,14.62
2022-10-23T17:09:19.985Z,14.64
2022-10-23T17:11:47.926Z,14.70
2022-10-23T17:14:19.667Z,14.69
2022-10-23T17:16:49.425Z,14.65
2022-10-23T17:19:40.124Z,14.53
2022-10-23T17:22:10.431Z,14.49
2022-10-23T17:24:38.813Z,14.53
2022-10-23T17:27:07.078Z,14.61
2022-10-23T17:29:36.316Z,14.64
2022-10-23T17:32:04.630Z,14.66
2022-10-23T17:34:32.520Z,14.66
2022-10-23T17:37:00.313Z,14.62
2022-10-23T17:39:30.633Z,14.62
2022-10-23T17:41:59.475Z,14.61
2022-10-23T17:44:29.059Z,14.60
2022-10-23T17:46:58.281Z,14.55
2022-10-23T17:49:26.659Z,14.64
2022-10-23T17:51:56.357Z,14.65
2022-10-23T17:54:25.185Z,14.63
2022-10-23T17:56:53.022Z,14.69
2022-10-23T17:59:21.220Z,14.72
2022-10-23T18:01:49.345Z,14.72
2022-10-23T18:04:20.782Z,14.74
2022-10-23T18:06:50.697Z,14.75
2022-10-23T18:09:19.787Z,14.75
2022-10-23T18:11:48.697Z,14.77
2022-10-23T18:14:17.229Z,14.76
2022-10-23T18:16:46.132Z,14.79
2022-10-23T18:19:14.373Z,14.81
2022-10-23T18:21:43.528Z,14.83
2022-10-23T18:24:12.736Z,14.80
2022-10-23T18:26:42.596Z,14.84
2022-10-23T18:29:17.273Z,14.85
2022-10-23T18:31:45.988Z,14.88
2022-10-23T18:34:16.825Z,14.78
2022-10-23T18:36:46.351Z,14.78
2022-10-23T18:39:15.947Z,14.90
2022-10-23T18:41:45.772Z,14.89
2022-10-23T18:44:16.691Z,14.90
2022-10-23T18:46:44.863Z,14.89
2022-10-23T18:49:12.806Z,14.89
2022-10-23T18:51:41.199Z,14.92
2022-10-23T18:54:13.411Z,14.93
2022-10-23T18:56:41.637Z,14.90
2022-10-23T18:59:13.249Z,14.92
2022-10-23T19:01:41.980Z,14.87
2022-10-23T19:04:11.649Z,14.89
2022-10-23T19:06:40.049Z,14.89
2022-10-23T19:09:11.736Z,14.88
2022-10-23T19:11:40.399Z,14.88
2022-10-23T19:14:08.304Z,14.88
2022-10-23T19:16:39.823Z,14.87
2022-10-23T19:19:13.867Z,14.86
2022-10-23T19:21:43.240Z,14.86
2022-10-23T19:24:16.865Z,14.73
2022-10-23T19:26:44.981Z,14.88
2022-10-23T19:29:16.510Z,14.89
2022-10-23T19:31:48.874Z,14.89
2022-10-23T19:34:19.658Z,14.89
2022-10-23T19:36:47.540Z,14.88
2022-10-23T19:39:17.047Z,14.90
2022-10-23T19:41:44.931Z,14.89
2022-10-23T19:44:15.049Z,14.91
2022-10-23T19:46:43.042Z,14.87
2022-10-23T19:49:11.313Z,14.92
2022-10-23T19:51:39.459Z,14.92
2022-10-23T19:54:09.646Z,14.91
2022-10-23T19:56:39.357Z,14.92
2022-10-23T19:59:07.433Z,14.89
2022-10-23T20:01:35.718Z,14.88
2022-10-23T20:04:03.587Z,14.86
2022-10-23T20:06:34.537Z,14.85
2022-10-23T20:09:02.741Z,14.83
2022-10-23T20:11:32.181Z,14.79
2022-10-23T20:14:01.357Z,14.79
2022-10-23T20:16:31.343Z,14.74
2022-10-23T20:18:59.688Z,14.76
2022-10-23T20:21:27.884Z,14.74
2022-10-23T20:23:57.663Z,14.73
2022-10-23T20:26:25.551Z,14.67
2022-10-23T20:28:55.831Z,14.59
2022-10-23T20:31:26.911Z,14.52
2022-10-23T20:33:55.407Z,14.47
2022-10-23T20:36:27.243Z,14.42
2022-10-23T20:38:55.618Z,14.36
2022-10-23T20:41:24.963Z,14.33
2022-10-23T20:43:52.821Z,14.31
2022-10-23T20:46:21.757Z,14.26
2022-10-23T20:48:51.145Z,14.24
2022-10-23T20:51:21.526Z,14.23
2022-10-23T20:53:50.751Z,14.24
2022-10-23T20:56:20.573Z,14.18
2022-10-23T20:58:48.437Z,14.20
2022-10-23T21:01:19.094Z,14.18
2022-10-23T21:03:52.229Z,14.13
2022-10-23T21:06:20.720Z,14.08
2022-10-23T21:08:48.515Z,13.96
2022-10-23T21:11:18.320Z,13.97
2022-10-23T21:13:46.219Z,13.88
2022-10-23T21:16:15.705Z,13.90
2022-10-23T21:18:46.479Z,13.84
2022-10-23T21:21:19.165Z,13.81
2022-10-23T21:23:48.153Z,13.77
2022-10-23T21:26:16.979Z,13.75
2022-10-23T21:28:55.644Z,13.71
2022-10-23T21:31:29.260Z,13.69
2022-10-23T21:33:57.257Z,13.66
2022-10-23T21:36:27.409Z,13.68
2022-10-23T21:38:58.320Z,13.71
2022-10-23T21:41:29.666Z,13.74
2022-10-23T21:43:59.433Z,13.70
2022-10-23T21:46:28.326Z,13.81
2022-10-23T21:48:56.941Z,13.80
2022-10-23T21:51:29.799Z,13.82
2022-10-23T21:53:58.161Z,13.81
2022-10-23T21:56:32.179Z,13.77
2022-10-23T21:59:01.772Z,13.76
2022-10-23T22:01:30.315Z,13.78
2022-10-23T22:03:58.191Z,13.78
2022-10-23T22:06:29.283Z,13.80
2022-10-23T22:08:58.755Z,13.76
2022-10-23T22:11:27.292Z,13.73
2022-10-23T22:13:55.677Z,13.65
2022-10-23T22:16:23.718Z,13.65
2022-10-23T22:18:51.840Z,13.65
2022-10-23T22:21:21.992Z,13.68
2022-10-23T22:23:52.466Z,13.66
2022-10-23T22:26:23.852Z,13.68
2022-10-23T22:28:53.421Z,13.62
2022-10-23T22:31:23.843Z,13.58
2022-10-23T22:33:52.576Z,13.56
2022-10-23T22:36:20.614Z,13.42
2022-10-23T22:38:48.929Z,13.46
2022-10-23T22:41:18.958Z,13.38
2022-10-23T22:43:47.166Z,13.31
2022-10-23T22:46:17.415Z,13.30
2022-10-23T22:48:45.986Z,13.29
2022-10-23T22:51:15.671Z,13.18
2022-10-23T22:53:44.318Z,13.13
2022-10-23T22:56:14.646Z,13.18
2022-10-23T22:58:44.135Z,13.17
2022-10-23T23:01:15.474Z,13.14
2022-10-23T23:03:43.746Z,13.08
2022-10-23T23:06:12.544Z,13.04
2022-10-23T23:08:41.465Z,13.00
2022-10-23T23:11:12.549Z,12.93
2022-10-23T23:13:40.979Z,12.95
2022-10-23T23:16:20.991Z,12.86
2022-10-23T23:18:49.583Z,12.93
2022-10-23T23:21:17.950Z,13.05
2022-10-23T23:23:46.409Z,13.04
2022-10-23T23:26:15.075Z,13.02
2022-10-23T23:28:43.099Z,12.99
2022-10-23T23:31:14.532Z,12.94
2022-10-23T23:33:42.293Z,12.89
2022-10-23T23:36:13.421Z,12.84
2022-10-23T23:38:41.312Z,12.79
2022-10-23T23:41:13.257Z,12.76
2022-10-23T23:43:41.299Z,12.73
2022-10-23T23:46:09.249Z,12.58
2022-10-23T23:48:39.177Z,12.71
2022-10-23T23:51:07.372Z,12.66
2022-10-23T23:53:35.208Z,12.70
2022-10-23T23:56:03.009Z,12.66
2022-10-23T23:58:30.761Z,12.63
